Auburn Hills, Michigan
Current Conditions -  °F | °C
As of 11:55 PM on Wednesday 22 Oct 2014 (Local Time) from KVLL Reporting Station
Clear Clear  
Wind Chill:   Ceiling: Unl
Heat Index:   Visibility: 10mi
Dew Point:   Wind: 3mph
Humidity: 85%   Direction: 360°N
Pressure: 30.3"   Gusts: NA
Location:  42.67°N, 83.22°W
Report Text: KVLL 230355Z AUTO 36003KT 10SM CLR 06/03 A3030 RMK AO2 T00550031
Loading
Personal Weather Stations






























Interactive Weather Map
Tropical Storm Tracking
New forecast layout! Learn more

10-Day Weather Forecast

Advertisements
Track Severe Weather on mobile